sensor_id;sensor_type;location;lat;lon;timestamp;temperature;humidity
1413;DHT22;701;52.526;13.408;2023-07-13T00:02:23;20.40;9.90
1413;DHT22;701;52.526;13.408;2023-07-13T00:04:49;20.40;10.60
1413;DHT22;701;52.526;13.408;2023-07-13T00:07:16;20.30;10.00
1413;DHT22;701;52.526;13.408;2023-07-13T00:09:46;20.30;10.00
1413;DHT22;701;52.526;13.408;2023-07-13T00:12:31;20.20;10.10
1413;DHT22;701;52.526;13.408;2023-07-13T00:14:58;20.20;10.50
1413;DHT22;701;52.526;13.408;2023-07-13T00:17:26;20.20;10.30
1413;DHT22;701;52.526;13.408;2023-07-13T00:19:53;20.20;10.40
1413;DHT22;701;52.526;13.408;2023-07-13T00:22:19;20.10;10.30
1413;DHT22;701;52.526;13.408;2023-07-13T00:24:45;20.10;10.50
1413;DHT22;701;52.526;13.408;2023-07-13T00:27:12;20.10;10.60
1413;DHT22;701;52.526;13.408;2023-07-13T00:29:38;20.00;10.40
1413;DHT22;701;52.526;13.408;2023-07-13T00:32:04;20.00;10.60
1413;DHT22;701;52.526;13.408;2023-07-13T00:34:31;20.00;10.80
1413;DHT22;701;52.526;13.408;2023-07-13T00:36:57;20.00;11.00
1413;DHT22;701;52.526;13.408;2023-07-13T00:39:23;20.00;10.90
1413;DHT22;701;52.526;13.408;2023-07-13T00:41:49;20.00;10.90
1413;DHT22;701;52.526;13.408;2023-07-13T00:44:16;20.00;11.00
1413;DHT22;701;52.526;13.408;2023-07-13T00:46:42;19.90;10.90
1413;DHT22;701;52.526;13.408;2023-07-13T00:49:11;19.90;10.90
1413;DHT22;701;52.526;13.408;2023-07-13T00:51:41;19.90;11.00
1413;DHT22;701;52.526;13.408;2023-07-13T00:54:17;19.80;10.90
1413;DHT22;701;52.526;13.408;2023-07-13T00:56:44;19.80;11.20
1413;DHT22;701;52.526;13.408;2023-07-13T00:59:12;19.70;11.30
1413;DHT22;701;52.526;13.408;2023-07-13T01:01:39;19.70;12.00
1413;DHT22;701;52.526;13.408;2023-07-13T01:04:05;19.70;11.60
1413;DHT22;701;52.526;13.408;2023-07-13T01:06:35;19.60;11.50
1413;DHT22;701;52.526;13.408;2023-07-13T01:09:01;19.60;11.80
1413;DHT22;701;52.526;13.408;2023-07-13T01:11:29;19.50;11.90
1413;DHT22;701;52.526;13.408;2023-07-13T01:13:55;19.50;12.00
1413;DHT22;701;52.526;13.408;2023-07-13T01:16:27;19.50;12.00
1413;DHT22;701;52.526;13.408;2023-07-13T01:18:54;19.50;12.00
1413;DHT22;701;52.526;13.408;2023-07-13T01:21:23;19.40;11.90
1413;DHT22;701;52.526;13.408;2023-07-13T01:23:49;19.40;11.90
1413;DHT22;701;52.526;13.408;2023-07-13T01:26:15;19.40;11.90
1413;DHT22;701;52.526;13.408;2023-07-13T01:28:40;19.40;11.90
1413;DHT22;701;52.526;13.408;2023-07-13T01:31:07;19.40;12.00
1413;DHT22;701;52.526;13.408;2023-07-13T01:33:35;19.40;11.90
1413;DHT22;701;52.526;13.408;2023-07-13T01:36:01;19.30;11.90
1413;DHT22;701;52.526;13.408;2023-07-13T01:38:27;19.30;12.10
1413;DHT22;701;52.526;13.408;2023-07-13T01:40:54;19.30;12.40
1413;DHT22;701;52.526;13.408;2023-07-13T01:43:23;19.30;12.40
1413;DHT22;701;52.526;13.408;2023-07-13T01:45:49;19.20;12.30
1413;DHT22;701;52.526;13.408;2023-07-13T01:48:15;19.30;12.40
1413;DHT22;701;52.526;13.408;2023-07-13T01:50:41;19.20;12.30
1413;DHT22;701;52.526;13.408;2023-07-13T01:53:07;19.20;12.30
1413;DHT22;701;52.526;13.408;2023-07-13T01:55:34;19.20;12.60
1413;DHT22;701;52.526;13.408;2023-07-13T01:58:02;19.20;12.70
1413;DHT22;701;52.526;13.408;2023-07-13T02:00:28;19.20;12.70
1413;DHT22;701;52.526;13.408;2023-07-13T02:02:54;19.20;12.80
1413;DHT22;701;52.526;13.408;2023-07-13T02:05:20;19.10;13.00
1413;DHT22;701;52.526;13.408;2023-07-13T02:07:47;19.10;13.00
1413;DHT22;701;52.526;13.408;2023-07-13T02:10:13;19.10;13.00
1413;DHT22;701;52.526;13.408;2023-07-13T02:12:39;19.10;13.10
1413;DHT22;701;52.526;13.408;2023-07-13T02:15:06;19.10;13.20
1413;DHT22;701;52.526;13.408;2023-07-13T02:17:31;19.10;13.30
1413;DHT22;701;52.526;13.408;2023-07-13T02:19:57;19.10;13.50
1413;DHT22;701;52.526;13.408;2023-07-13T02:22:23;19.10;13.60
1413;DHT22;701;52.526;13.408;2023-07-13T02:24:49;19.20;13.50
1413;DHT22;701;52.526;13.408;2023-07-13T02:27:18;19.20;13.40
1413;DHT22;701;52.526;13.408;2023-07-13T02:29:44;19.20;13.30
1413;DHT22;701;52.526;13.408;2023-07-13T02:32:09;19.20;13.40
1413;DHT22;701;52.526;13.408;2023-07-13T02:34:35;19.30;13.50
1413;DHT22;701;52.526;13.408;2023-07-13T02:37:03;19.30;13.40
1413;DHT22;701;52.526;13.408;2023-07-13T02:39:29;19.30;13.40
1413;DHT22;701;52.526;13.408;2023-07-13T02:41:59;19.20;13.30
1413;DHT22;701;52.526;13.408;2023-07-13T02:44:25;19.20;13.40
1413;DHT22;701;52.526;13.408;2023-07-13T02:46:51;19.20;13.40
1413;DHT22;701;52.526;13.408;2023-07-13T02:49:17;19.20;13.40
1413;DHT22;701;52.526;13.408;2023-07-13T02:51:42;19.20;13.40
1413;DHT22;701;52.526;13.408;2023-07-13T02:54:09;19.20;13.50
1413;DHT22;701;52.526;13.408;2023-07-13T02:56:36;19.20;13.50
1413;DHT22;701;52.526;13.408;2023-07-13T02:59:04;19.10;13.50
1413;DHT22;701;52.526;13.408;2023-07-13T03:01:30;19.10;13.60
1413;DHT22;701;52.526;13.408;2023-07-13T03:04:01;19.10;13.80
1413;DHT22;701;52.526;13.408;2023-07-13T03:06:30;19.10;13.80
1413;DHT22;701;52.526;13.408;2023-07-13T03:08:56;19.10;14.10
1413;DHT22;701;52.526;13.408;2023-07-13T03:11:23;19.10;14.00
1413;DHT22;701;52.526;13.408;2023-07-13T03:13:55;19.10;14.20
1413;DHT22;701;52.526;13.408;2023-07-13T03:16:22;19.10;14.20
1413;DHT22;701;52.526;13.408;2023-07-13T03:18:50;19.10;14.30
1413;DHT22;701;52.526;13.408;2023-07-13T03:21:16;19.10;14.30
1413;DHT22;701;52.526;13.408;2023-07-13T03:23:42;19.10;14.30
1413;DHT22;701;52.526;13.408;2023-07-13T03:26:14;19.10;14.40
1413;DHT22;701;52.526;13.408;2023-07-13T03:28:42;19.10;14.60
1413;DHT22;701;52.526;13.408;2023-07-13T03:31:14;19.20;14.70
1413;DHT22;701;52.526;13.408;2023-07-13T03:33:41;19.20;14.90
1413;DHT22;701;52.526;13.408;2023-07-13T03:36:13;19.30;14.60
1413;DHT22;701;52.526;13.408;2023-07-13T03:38:39;19.40;14.80
1413;DHT22;701;52.526;13.408;2023-07-13T03:41:06;19.40;14.70
1413;DHT22;701;52.526;13.408;2023-07-13T03:43:31;19.50;14.70
1413;DHT22;701;52.526;13.408;2023-07-13T03:45:57;19.60;14.70
1413;DHT22;701;52.526;13.408;2023-07-13T03:48:23;19.60;14.70
1413;DHT22;701;52.526;13.408;2023-07-13T03:50:49;19.60;14.60
1413;DHT22;701;52.526;13.408;2023-07-13T03:53:15;19.60;14.50
1413;DHT22;701;52.526;13.408;2023-07-13T03:55:41;19.60;14.50
1413;DHT22;701;52.526;13.408;2023-07-13T03:58:31;19.60;14.60
1413;DHT22;701;52.526;13.408;2023-07-13T04:01:06;19.60;14.70
1413;DHT22;701;52.526;13.408;2023-07-13T04:03:34;19.60;14.60
1413;DHT22;701;52.526;13.408;2023-07-13T04:06:01;19.60;14.70
1413;DHT22;701;52.526;13.408;2023-07-13T04:08:28;19.60;14.70
1413;DHT22;701;52.526;13.408;2023-07-13T04:10:55;19.50;14.70
1413;DHT22;701;52.526;13.408;2023-07-13T04:13:23;19.60;14.70
1413;DHT22;701;52.526;13.408;2023-07-13T04:15:48;19.60;15.30
1413;DHT22;701;52.526;13.408;2023-07-13T04:18:14;19.60;14.80
1413;DHT22;701;52.526;13.408;2023-07-13T04:20:40;19.60;14.80
1413;DHT22;701;52.526;13.408;2023-07-13T04:23:06;19.60;14.90
1413;DHT22;701;52.526;13.408;2023-07-13T04:25:32;19.60;14.80
1413;DHT22;701;52.526;13.408;2023-07-13T04:27:57;19.60;15.00
1413;DHT22;701;52.526;13.408;2023-07-13T04:30:23;19.60;15.40
1413;DHT22;701;52.526;13.408;2023-07-13T04:32:51;19.60;14.80
1413;DHT22;701;52.526;13.408;2023-07-13T04:35:19;19.70;14.90
1413;DHT22;701;52.526;13.408;2023-07-13T04:37:47;19.70;14.80
1413;DHT22;701;52.526;13.408;2023-07-13T04:40:16;19.80;14.80
1413;DHT22;701;52.526;13.408;2023-07-13T04:42:42;19.80;14.80
1413;DHT22;701;52.526;13.408;2023-07-13T04:45:08;19.80;14.60
1413;DHT22;701;52.526;13.408;2023-07-13T04:47:33;19.80;14.60
1413;DHT22;701;52.526;13.408;2023-07-13T04:49:59;19.90;14.60
1413;DHT22;701;52.526;13.408;2023-07-13T04:52:25;19.90;14.50
1413;DHT22;701;52.526;13.408;2023-07-13T04:54:51;20.00;14.40
1413;DHT22;701;52.526;13.408;2023-07-13T04:57:16;20.00;14.40
1413;DHT22;701;52.526;13.408;2023-07-13T04:59:42;20.10;14.20
1413;DHT22;701;52.526;13.408;2023-07-13T05:02:08;20.10;14.10
1413;DHT22;701;52.526;13.408;2023-07-13T05:04:33;20.10;13.90
1413;DHT22;701;52.526;13.408;2023-07-13T05:06:59;20.20;13.80
1413;DHT22;701;52.526;13.408;2023-07-13T05:09:25;20.20;13.70
1413;DHT22;701;52.526;13.408;2023-07-13T05:11:51;20.30;14.10
1413;DHT22;701;52.526;13.408;2023-07-13T05:14:17;20.30;13.30
1413;DHT22;701;52.526;13.408;2023-07-13T05:16:42;20.40;13.20
1413;DHT22;701;52.526;13.408;2023-07-13T05:19:09;20.40;13.00
1413;DHT22;701;52.526;13.408;2023-07-13T05:21:34;20.50;12.70
1413;DHT22;701;52.526;13.408;2023-07-13T05:24:00;20.60;12.70
1413;DHT22;701;52.526;13.408;2023-07-13T05:26:26;20.60;12.70
1413;DHT22;701;52.526;13.408;2023-07-13T05:28:52;20.70;12.80
1413;DHT22;701;52.526;13.408;2023-07-13T05:31:18;20.80;12.90
1413;DHT22;701;52.526;13.408;2023-07-13T05:33:44;20.80;12.80
1413;DHT22;701;52.526;13.408;2023-07-13T05:36:10;20.90;12.40
1413;DHT22;701;52.526;13.408;2023-07-13T05:38:36;21.00;12.20
1413;DHT22;701;52.526;13.408;2023-07-13T05:41:01;21.10;11.90
1413;DHT22;701;52.526;13.408;2023-07-13T05:43:27;21.20;11.70
1413;DHT22;701;52.526;13.408;2023-07-13T05:45:54;21.30;11.50
1413;DHT22;701;52.526;13.408;2023-07-13T05:48:20;21.40;11.40
1413;DHT22;701;52.526;13.408;2023-07-13T05:50:46;21.40;11.20
1413;DHT22;701;52.526;13.408;2023-07-13T05:53:12;21.50;11.20
1413;DHT22;701;52.526;13.408;2023-07-13T05:55:45;21.60;11.00
1413;DHT22;701;52.526;13.408;2023-07-13T05:58:18;21.60;10.80
1413;DHT22;701;52.526;13.408;2023-07-13T06:00:45;21.70;10.60
1413;DHT22;701;52.526;13.408;2023-07-13T06:03:11;21.70;10.40
1413;DHT22;701;52.526;13.408;2023-07-13T06:05:38;21.80;10.30
1413;DHT22;701;52.526;13.408;2023-07-13T06:08:04;21.90;10.10
1413;DHT22;701;52.526;13.408;2023-07-13T06:10:34;21.90;10.00
1413;DHT22;701;52.526;13.408;2023-07-13T06:13:00;21.90;9.70
1413;DHT22;701;52.526;13.408;2023-07-13T06:15:26;22.00;9.80
1413;DHT22;701;52.526;13.408;2023-07-13T06:17:52;22.00;9.90
1413;DHT22;701;52.526;13.408;2023-07-13T06:20:18;22.10;9.50
1413;DHT22;701;52.526;13.408;2023-07-13T06:22:44;22.00;9.30
1413;DHT22;701;52.526;13.408;2023-07-13T06:25:10;22.10;9.30
1413;DHT22;701;52.526;13.408;2023-07-13T06:27:36;22.20;9.20
1413;DHT22;701;52.526;13.408;2023-07-13T06:30:01;22.20;8.90
1413;DHT22;701;52.526;13.408;2023-07-13T06:32:27;22.20;8.70
1413;DHT22;701;52.526;13.408;2023-07-13T06:34:53;22.30;8.50
1413;DHT22;701;52.526;13.408;2023-07-13T06:37:19;22.30;8.30
1413;DHT22;701;52.526;13.408;2023-07-13T06:39:44;22.40;8.20
1413;DHT22;701;52.526;13.408;2023-07-13T06:42:10;22.50;7.90
1413;DHT22;701;52.526;13.408;2023-07-13T06:44:37;22.90;7.80
1413;DHT22;701;52.526;13.408;2023-07-13T06:47:03;24.40;5.80
1413;DHT22;701;52.526;13.408;2023-07-13T06:49:28;26.20;3.30
1413;DHT22;701;52.526;13.408;2023-07-13T06:51:54;28.20;1.00
1413;DHT22;701;52.526;13.408;2023-07-13T06:54:20;30.00;1.00
1413;DHT22;701;52.526;13.408;2023-07-13T06:56:46;31.60;1.00
1413;DHT22;701;52.526;13.408;2023-07-13T06:59:12;33.30;1.00
1413;DHT22;701;52.526;13.408;2023-07-13T07:01:37;35.00;1.00
1413;DHT22;701;52.526;13.408;2023-07-13T07:04:03;36.60;1.00
1413;DHT22;701;52.526;13.408;2023-07-13T07:06:29;38.00;1.00
1413;DHT22;701;52.526;13.408;2023-07-13T07:08:55;39.10;1.00
1413;DHT22;701;52.526;13.408;2023-07-13T07:11:23;40.00;1.00
1413;DHT22;701;52.526;13.408;2023-07-13T07:13:50;40.90;1.00
1413;DHT22;701;52.526;13.408;2023-07-13T07:16:16;41.70;1.00
1413;DHT22;701;52.526;13.408;2023-07-13T07:18:42;42.30;1.00
1413;DHT22;701;52.526;13.408;2023-07-13T07:21:07;42.90;1.00
1413;DHT22;701;52.526;13.408;2023-07-13T07:23:33;43.30;1.00
1413;DHT22;701;52.526;13.408;2023-07-13T07:25:59;43.70;1.00
1413;DHT22;701;52.526;13.408;2023-07-13T07:28:25;44.10;1.00
1413;DHT22;701;52.526;13.408;2023-07-13T07:30:53;44.70;1.00
1413;DHT22;701;52.526;13.408;2023-07-13T07:33:19;45.30;1.00
1413;DHT22;701;52.526;13.408;2023-07-13T07:35:45;44.90;1.00
1413;DHT22;701;52.526;13.408;2023-07-13T07:38:11;43.70;1.00
1413;DHT22;701;52.526;13.408;2023-07-13T07:40:38;42.00;1.00
1413;DHT22;701;52.526;13.408;2023-07-13T07:43:04;40.50;1.00
1413;DHT22;701;52.526;13.408;2023-07-13T07:45:29;39.20;1.00
1413;DHT22;701;52.526;13.408;2023-07-13T07:47:55;38.10;1.00
1413;DHT22;701;52.526;13.408;2023-07-13T07:50:25;37.00;1.00
1413;DHT22;701;52.526;13.408;2023-07-13T07:52:51;35.90;1.00
1413;DHT22;701;52.526;13.408;2023-07-13T07:55:17;35.00;1.00
1413;DHT22;701;52.526;13.408;2023-07-13T07:57:42;34.20;1.00
1413;DHT22;701;52.526;13.408;2023-07-13T08:00:09;33.60;1.00
1413;DHT22;701;52.526;13.408;2023-07-13T08:02:40;32.90;1.00
1413;DHT22;701;52.526;13.408;2023-07-13T08:05:07;32.40;1.00
1413;DHT22;701;52.526;13.408;2023-07-13T08:07:34;32.10;1.00
1413;DHT22;701;52.526;13.408;2023-07-13T08:10:00;31.80;1.00
1413;DHT22;701;52.526;13.408;2023-07-13T08:12:26;31.60;1.00
1413;DHT22;701;52.526;13.408;2023-07-13T08:14:52;31.40;1.00
1413;DHT22;701;52.526;13.408;2023-07-13T08:17:24;31.40;1.00
1413;DHT22;701;52.526;13.408;2023-07-13T08:19:50;31.50;1.00
1413;DHT22;701;52.526;13.408;2023-07-13T08:22:16;31.40;1.00
1413;DHT22;701;52.526;13.408;2023-07-13T08:24:42;31.30;1.00
1413;DHT22;701;52.526;13.408;2023-07-13T08:27:09;31.30;1.00
1413;DHT22;701;52.526;13.408;2023-07-13T08:29:37;31.90;1.00
1413;DHT22;701;52.526;13.408;2023-07-13T08:32:04;32.80;1.00
1413;DHT22;701;52.526;13.408;2023-07-13T08:34:30;33.50;1.00
1413;DHT22;701;52.526;13.408;2023-07-13T08:36:55;34.50;1.00
1413;DHT22;701;52.526;13.408;2023-07-13T08:39:21;34.80;1.00
1413;DHT22;701;52.526;13.408;2023-07-13T08:41:51;34.80;1.00
1413;DHT22;701;52.526;13.408;2023-07-13T08:44:36;34.70;1.00
1413;DHT22;701;52.526;13.408;2023-07-13T08:47:06;34.30;1.00
1413;DHT22;701;52.526;13.408;2023-07-13T08:49:33;34.00;1.00
1413;DHT22;701;52.526;13.408;2023-07-13T08:52:08;33.40;1.00
1413;DHT22;701;52.526;13.408;2023-07-13T08:54:40;32.90;1.00
1413;DHT22;701;52.526;13.408;2023-07-13T08:57:14;32.30;1.00
1413;DHT22;701;52.526;13.408;2023-07-13T08:59:40;32.00;1.00
1413;DHT22;701;52.526;13.408;2023-07-13T09:02:26;32.30;1.00
1413;DHT22;701;52.526;13.408;2023-07-13T09:05:03;33.80;1.00
1413;DHT22;701;52.526;13.408;2023-07-13T09:10:27;37.60;1.00
1413;DHT22;701;52.526;13.408;2023-07-13T09:15:45;40.80;1.00
1413;DHT22;701;52.526;13.408;2023-07-13T09:18:19;41.00;1.00
1413;DHT22;701;52.526;13.408;2023-07-13T09:23:24;41.20;1.00
1413;DHT22;701;52.526;13.408;2023-07-13T09:25:54;41.70;1.00
1413;DHT22;701;52.526;13.408;2023-07-13T09:28:27;42.30;1.00
1413;DHT22;701;52.526;13.408;2023-07-13T09:33:35;43.50;1.00
1413;DHT22;701;52.526;13.408;2023-07-13T09:36:03;44.10;1.00
1413;DHT22;701;52.526;13.408;2023-07-13T09:38:39;44.40;1.00
1413;DHT22;701;52.526;13.408;2023-07-13T09:41:27;44.80;1.00
1413;DHT22;701;52.526;13.408;2023-07-13T09:44:14;45.30;1.00
1413;DHT22;701;52.526;13.408;2023-07-13T09:46:54;45.20;1.00
1413;DHT22;701;52.526;13.408;2023-07-13T09:49:34;45.20;1.00
1413;DHT22;701;52.526;13.408;2023-07-13T09:52:04;44.60;1.00
1413;DHT22;701;52.526;13.408;2023-07-13T09:54:34;43.60;1.00
1413;DHT22;701;52.526;13.408;2023-07-13T09:57:02;42.50;1.00
1413;DHT22;701;52.526;13.408;2023-07-13T09:59:34;42.10;1.00
1413;DHT22;701;52.526;13.408;2023-07-13T10:02:00;42.10;1.00
1413;DHT22;701;52.526;13.408;2023-07-13T10:04:32;42.20;1.00
1413;DHT22;701;52.526;13.408;2023-07-13T10:07:11;42.10;1.00
1413;DHT22;701;52.526;13.408;2023-07-13T10:09:38;42.10;1.00
1413;DHT22;701;52.526;13.408;2023-07-13T10:12:14;41.80;1.00
1413;DHT22;701;52.526;13.408;2023-07-13T10:14:40;41.80;1.00
1413;DHT22;701;52.526;13.408;2023-07-13T10:17:11;41.50;1.00
1413;DHT22;701;52.526;13.408;2023-07-13T10:19:38;41.30;1.00
1413;DHT22;701;52.526;13.408;2023-07-13T10:22:45;41.10;1.00
1413;DHT22;701;52.526;13.408;2023-07-13T10:25:21;41.00;1.00
1413;DHT22;701;52.526;13.408;2023-07-13T10:27:51;40.60;1.00
1413;DHT22;701;52.526;13.408;2023-07-13T10:32:44;39.90;1.00
1413;DHT22;701;52.526;13.408;2023-07-13T10:35:15;39.60;1.00
1413;DHT22;701;52.526;13.408;2023-07-13T10:40:16;39.10;1.00
1413;DHT22;701;52.526;13.408;2023-07-13T10:42:45;38.90;1.00
1413;DHT22;701;52.526;13.408;2023-07-13T10:45:18;38.80;1.00
1413;DHT22;701;52.526;13.408;2023-07-13T10:47:45;38.60;1.00
1413;DHT22;701;52.526;13.408;2023-07-13T10:50:23;38.50;1.00
1413;DHT22;701;52.526;13.408;2023-07-13T10:52:53;38.30;1.00
1413;DHT22;701;52.526;13.408;2023-07-13T10:58:20;37.60;1.00
1413;DHT22;701;52.526;13.408;2023-07-13T11:00:49;37.50;1.00
1413;DHT22;701;52.526;13.408;2023-07-13T11:03:19;37.30;1.00
1413;DHT22;701;52.526;13.408;2023-07-13T11:05:49;37.20;1.00
1413;DHT22;701;52.526;13.408;2023-07-13T11:08:32;37.00;1.00
1413;DHT22;701;52.526;13.408;2023-07-13T11:10:58;36.70;1.00
1413;DHT22;701;52.526;13.408;2023-07-13T11:18:51;36.00;1.00
1413;DHT22;701;52.526;13.408;2023-07-13T11:21:21;35.70;1.00
1413;DHT22;701;52.526;13.408;2023-07-13T11:24:01;35.30;1.00
1413;DHT22;701;52.526;13.408;2023-07-13T11:31:58;34.30;1.00
1413;DHT22;701;52.526;13.408;2023-07-13T11:34:35;34.00;1.00
1413;DHT22;701;52.526;13.408;2023-07-13T11:37:02;33.60;1.00
1413;DHT22;701;52.526;13.408;2023-07-13T11:39:36;33.20;1.00
1413;DHT22;701;52.526;13.408;2023-07-13T11:42:07;32.80;1.00
1413;DHT22;701;52.526;13.408;2023-07-13T11:44:34;32.40;1.00
1413;DHT22;701;52.526;13.408;2023-07-13T11:47:09;32.10;1.00
1413;DHT22;701;52.526;13.408;2023-07-13T11:49:49;31.70;1.00
1413;DHT22;701;52.526;13.408;2023-07-13T11:52:18;31.30;1.00
1413;DHT22;701;52.526;13.408;2023-07-13T11:54:50;31.10;1.00
1413;DHT22;701;52.526;13.408;2023-07-13T11:57:26;31.00;1.00
1413;DHT22;701;52.526;13.408;2023-07-13T11:59:55;30.80;1.00
1413;DHT22;701;52.526;13.408;2023-07-13T12:02:41;30.60;1.00
1413;DHT22;701;52.526;13.408;2023-07-13T12:05:12;30.50;1.00
1413;DHT22;701;52.526;13.408;2023-07-13T12:07:39;30.30;1.00
1413;DHT22;701;52.526;13.408;2023-07-13T12:10:34;30.20;1.00
1413;DHT22;701;52.526;13.408;2023-07-13T12:13:02;30.00;1.00
1413;DHT22;701;52.526;13.408;2023-07-13T12:15:45;29.70;1.00
1413;DHT22;701;52.526;13.408;2023-07-13T12:18:22;29.50;1.00
1413;DHT22;701;52.526;13.408;2023-07-13T12:20:50;29.30;1.00
1413;DHT22;701;52.526;13.408;2023-07-13T12:23:28;29.20;1.00
1413;DHT22;701;52.526;13.408;2023-07-13T12:25:55;29.00;1.00
1413;DHT22;701;52.526;13.408;2023-07-13T12:30:59;28.90;1.00
1413;DHT22;701;52.526;13.408;2023-07-13T12:33:28;28.90;1.00
1413;DHT22;701;52.526;13.408;2023-07-13T12:35:54;29.00;1.00
1413;DHT22;701;52.526;13.408;2023-07-13T12:38:21;29.00;1.00
1413;DHT22;701;52.526;13.408;2023-07-13T12:40:50;28.90;1.00
1413;DHT22;701;52.526;13.408;2023-07-13T12:43:17;28.90;1.00
1413;DHT22;701;52.526;13.408;2023-07-13T12:46:14;28.90;1.00
1413;DHT22;701;52.526;13.408;2023-07-13T12:48:42;28.70;1.00
1413;DHT22;701;52.526;13.408;2023-07-13T12:51:12;28.60;1.00
1413;DHT22;701;52.526;13.408;2023-07-13T12:53:50;28.60;1.00
1413;DHT22;701;52.526;13.408;2023-07-13T12:56:24;28.60;1.00
1413;DHT22;701;52.526;13.408;2023-07-13T12:58:58;28.60;1.00
1413;DHT22;701;52.526;13.408;2023-07-13T13:01:31;28.50;1.00
1413;DHT22;701;52.526;13.408;2023-07-13T13:04:01;28.50;1.00
1413;DHT22;701;52.526;13.408;2023-07-13T13:06:29;28.50;1.00
1413;DHT22;701;52.526;13.408;2023-07-13T13:08:59;28.50;1.00
1413;DHT22;701;52.526;13.408;2023-07-13T13:11:27;28.50;1.00
1413;DHT22;701;52.526;13.408;2023-07-13T13:13:53;28.40;1.00
1413;DHT22;701;52.526;13.408;2023-07-13T13:18:53;28.50;1.00
1413;DHT22;701;52.526;13.408;2023-07-13T13:21:20;28.60;1.00
1413;DHT22;701;52.526;13.408;2023-07-13T13:23:46;28.80;1.00
1413;DHT22;701;52.526;13.408;2023-07-13T13:26:14;28.90;1.00
1413;DHT22;701;52.526;13.408;2023-07-13T13:28:43;29.10;1.00
1413;DHT22;701;52.526;13.408;2023-07-13T13:31:10;29.20;1.00
1413;DHT22;701;52.526;13.408;2023-07-13T13:33:41;29.20;1.00
1413;DHT22;701;52.526;13.408;2023-07-13T13:36:19;29.30;1.00
1413;DHT22;701;52.526;13.408;2023-07-13T13:38:46;29.40;1.00
1413;DHT22;701;52.526;13.408;2023-07-13T13:41:13;29.40;1.00
1413;DHT22;701;52.526;13.408;2023-07-13T13:43:40;29.60;1.00
1413;DHT22;701;52.526;13.408;2023-07-13T13:46:25;29.60;1.00
1413;DHT22;701;52.526;13.408;2023-07-13T13:48:51;29.50;1.00
1413;DHT22;701;52.526;13.408;2023-07-13T13:51:21;29.40;1.00
1413;DHT22;701;52.526;13.408;2023-07-13T13:53:48;29.20;1.00
1413;DHT22;701;52.526;13.408;2023-07-13T13:56:15;29.10;1.00
1413;DHT22;701;52.526;13.408;2023-07-13T13:58:41;29.20;1.00
1413;DHT22;701;52.526;13.408;2023-07-13T14:01:18;29.20;1.00
1413;DHT22;701;52.526;13.408;2023-07-13T14:03:45;29.20;1.00
1413;DHT22;701;52.526;13.408;2023-07-13T14:06:13;29.30;1.00
1413;DHT22;701;52.526;13.408;2023-07-13T14:08:39;29.40;1.00
1413;DHT22;701;52.526;13.408;2023-07-13T14:11:07;29.40;1.00
1413;DHT22;701;52.526;13.408;2023-07-13T14:13:40;29.50;1.00
1413;DHT22;701;52.526;13.408;2023-07-13T14:16:15;29.50;1.00
1413;DHT22;701;52.526;13.408;2023-07-13T14:18:44;29.50;1.00
1413;DHT22;701;52.526;13.408;2023-07-13T14:21:17;29.60;1.00
1413;DHT22;701;52.526;13.408;2023-07-13T14:23:45;29.60;1.00
1413;DHT22;701;52.526;13.408;2023-07-13T14:26:19;29.40;1.00
1413;DHT22;701;52.526;13.408;2023-07-13T14:28:48;29.30;1.00
1413;DHT22;701;52.526;13.408;2023-07-13T14:31:16;29.20;1.00
1413;DHT22;701;52.526;13.408;2023-07-13T14:33:43;29.20;1.00
1413;DHT22;701;52.526;13.408;2023-07-13T14:36:29;29.20;1.00
1413;DHT22;701;52.526;13.408;2023-07-13T14:38:57;29.10;1.00
1413;DHT22;701;52.526;13.408;2023-07-13T14:41:24;29.10;1.00
1413;DHT22;701;52.526;13.408;2023-07-13T14:43:50;29.20;1.00
1413;DHT22;701;52.526;13.408;2023-07-13T14:46:29;29.30;1.00
1413;DHT22;701;52.526;13.408;2023-07-13T14:49:04;29.50;1.00
1413;DHT22;701;52.526;13.408;2023-07-13T14:51:30;29.70;1.00
1413;DHT22;701;52.526;13.408;2023-07-13T14:54:02;29.70;1.00
1413;DHT22;701;52.526;13.408;2023-07-13T14:56:28;29.70;1.00
1413;DHT22;701;52.526;13.408;2023-07-13T14:58:53;29.70;1.00
1413;DHT22;701;52.526;13.408;2023-07-13T15:01:20;29.70;1.00
1413;DHT22;701;52.526;13.408;2023-07-13T15:03:48;29.60;1.00
1413;DHT22;701;52.526;13.408;2023-07-13T15:06:14;29.50;1.00
1413;DHT22;701;52.526;13.408;2023-07-13T15:08:40;29.50;1.00
1413;DHT22;701;52.526;13.408;2023-07-13T15:11:07;29.40;1.00
1413;DHT22;701;52.526;13.408;2023-07-13T15:13:33;29.40;1.00
1413;DHT22;701;52.526;13.408;2023-07-13T15:16:00;29.40;1.00
1413;DHT22;701;52.526;13.408;2023-07-13T15:18:27;29.40;1.00
1413;DHT22;701;52.526;13.408;2023-07-13T15:20:54;29.50;1.00
1413;DHT22;701;52.526;13.408;2023-07-13T15:23:21;29.60;1.00
1413;DHT22;701;52.526;13.408;2023-07-13T15:25:48;29.60;1.00
1413;DHT22;701;52.526;13.408;2023-07-13T15:28:14;29.60;1.00
1413;DHT22;701;52.526;13.408;2023-07-13T15:30:43;29.60;1.00
1413;DHT22;701;52.526;13.408;2023-07-13T15:33:26;29.50;1.00
1413;DHT22;701;52.526;13.408;2023-07-13T15:35:52;29.40;1.00
1413;DHT22;701;52.526;13.408;2023-07-13T15:38:25;29.20;1.00
1413;DHT22;701;52.526;13.408;2023-07-13T15:40:52;29.10;1.00
1413;DHT22;701;52.526;13.408;2023-07-13T15:43:18;29.00;1.00
1413;DHT22;701;52.526;13.408;2023-07-13T15:45:45;28.90;1.00
1413;DHT22;701;52.526;13.408;2023-07-13T15:48:23;28.70;1.00
1413;DHT22;701;52.526;13.408;2023-07-13T15:50:54;28.70;1.00
1413;DHT22;701;52.526;13.408;2023-07-13T15:53:24;28.60;1.00
1413;DHT22;701;52.526;13.408;2023-07-13T15:55:50;28.60;1.00
1413;DHT22;701;52.526;13.408;2023-07-13T15:58:17;28.60;1.00
1413;DHT22;701;52.526;13.408;2023-07-13T16:00:44;28.70;1.00
1413;DHT22;701;52.526;13.408;2023-07-13T16:03:10;28.60;1.00
1413;DHT22;701;52.526;13.408;2023-07-13T16:05:36;28.50;1.00
1413;DHT22;701;52.526;13.408;2023-07-13T16:08:04;28.50;1.00
1413;DHT22;701;52.526;13.408;2023-07-13T16:10:37;28.50;1.00
1413;DHT22;701;52.526;13.408;2023-07-13T16:13:14;28.40;1.00
1413;DHT22;701;52.526;13.408;2023-07-13T16:15:40;28.50;1.00
1413;DHT22;701;52.526;13.408;2023-07-13T16:18:13;28.50;1.00
1413;DHT22;701;52.526;13.408;2023-07-13T16:20:45;28.60;1.00
1413;DHT22;701;52.526;13.408;2023-07-13T16:23:15;28.70;1.00
1413;DHT22;701;52.526;13.408;2023-07-13T16:25:42;28.80;1.00
1413;DHT22;701;52.526;13.408;2023-07-13T16:28:11;28.90;1.00
1413;DHT22;701;52.526;13.408;2023-07-13T16:30:37;28.80;1.00
1413;DHT22;701;52.526;13.408;2023-07-13T16:33:04;28.70;1.00
1413;DHT22;701;52.526;13.408;2023-07-13T16:35:34;28.60;1.00
1413;DHT22;701;52.526;13.408;2023-07-13T16:38:14;28.60;1.00
1413;DHT22;701;52.526;13.408;2023-07-13T16:40:40;28.40;1.00
1413;DHT22;701;52.526;13.408;2023-07-13T16:43:11;28.30;1.00
1413;DHT22;701;52.526;13.408;2023-07-13T16:45:37;28.20;1.00
1413;DHT22;701;52.526;13.408;2023-07-13T16:48:16;27.90;1.00
1413;DHT22;701;52.526;13.408;2023-07-13T16:50:43;27.70;1.00
1413;DHT22;701;52.526;13.408;2023-07-13T16:53:20;27.50;1.00
1413;DHT22;701;52.526;13.408;2023-07-13T16:55:47;27.30;1.00
1413;DHT22;701;52.526;13.408;2023-07-13T16:58:13;27.10;1.00